createdAt,value
2023-10-27T00:00:37.226Z,5.60
2023-10-27T00:01:39.292Z,5.00
2023-10-27T00:02:40.812Z,5.20
2023-10-27T00:03:42.349Z,3.83
2023-10-27T00:04:44.125Z,3.77
2023-10-27T00:05:45.705Z,3.50
2023-10-27T00:06:47.119Z,3.20
2023-10-27T00:07:48.592Z,3.10
2023-10-27T00:08:49.965Z,3.20
2023-10-27T00:09:51.524Z,3.47
2023-10-27T00:10:54.074Z,3.33
2023-10-27T00:11:55.963Z,3.70
2023-10-27T00:12:57.385Z,3.57
2023-10-27T00:13:58.833Z,3.37
2023-10-27T00:15:00.573Z,3.87
2023-10-27T00:16:07.282Z,3.90
2023-10-27T00:17:08.718Z,4.03
2023-10-27T00:18:10.155Z,3.80
2023-10-27T00:19:11.561Z,3.37
2023-10-27T00:20:13.387Z,3.60
2023-10-27T00:21:14.777Z,3.77
2023-10-27T00:22:16.205Z,3.93
2023-10-27T00:23:20.041Z,3.20
2023-10-27T00:24:21.509Z,3.40
2023-10-27T00:25:22.961Z,3.13
2023-10-27T00:26:24.434Z,4.17
2023-10-27T00:27:26.772Z,3.63
2023-10-27T00:28:28.566Z,3.87
2023-10-27T00:29:30.107Z,3.13
2023-10-27T00:30:31.674Z,3.63
2023-10-27T00:31:33.194Z,3.40
2023-10-27T00:32:34.767Z,3.83
2023-10-27T00:33:36.330Z,3.30
2023-10-27T00:34:38.199Z,3.40
2023-10-27T00:35:39.748Z,3.60
2023-10-27T00:36:41.235Z,3.30
2023-10-27T00:37:42.764Z,3.57
2023-10-27T00:38:46.849Z,3.80
2023-10-27T00:39:48.261Z,3.20
2023-10-27T00:40:55.910Z,3.37
2023-10-27T00:42:00.907Z,3.70
2023-10-27T00:43:07.033Z,3.50
2023-10-27T00:44:08.606Z,3.83
2023-10-27T00:45:10.160Z,3.77
2023-10-27T00:46:11.555Z,4.17
2023-10-27T00:47:13.045Z,3.60
2023-10-27T00:48:14.957Z,3.80
2023-10-27T00:49:16.566Z,3.90
2023-10-27T00:50:18.337Z,4.57
2023-10-27T00:51:19.902Z,3.80
2023-10-27T00:52:21.779Z,4.33
2023-10-27T00:53:23.916Z,4.20
2023-10-27T00:54:27.673Z,4.10
2023-10-27T00:55:29.771Z,4.43
2023-10-27T00:56:31.908Z,3.73
2023-10-27T00:57:34.782Z,4.80
2023-10-27T00:58:36.699Z,5.00
2023-10-27T00:59:38.518Z,4.20
2023-10-27T01:00:39.924Z,4.70
2023-10-27T01:01:43.238Z,4.30
2023-10-27T01:02:44.927Z,4.50
2023-10-27T01:03:46.639Z,4.20
2023-10-27T01:04:48.963Z,4.07
2023-10-27T01:05:56.873Z,4.10
2023-10-27T01:06:59.011Z,4.27
2023-10-27T01:08:01.120Z,4.13
2023-10-27T01:09:02.639Z,4.30
2023-10-27T01:10:04.258Z,4.87
2023-10-27T01:11:05.738Z,4.70
2023-10-27T01:12:07.256Z,4.87
2023-10-27T01:13:08.866Z,4.70
2023-10-27T01:14:11.264Z,5.00
2023-10-27T01:15:12.704Z,4.90
2023-10-27T01:16:14.212Z,4.60
2023-10-27T01:17:15.640Z,5.33
2023-10-27T01:18:17.040Z,4.60
2023-10-27T01:19:19.864Z,5.00
2023-10-27T01:20:21.807Z,5.10
2023-10-27T01:21:23.453Z,5.07
2023-10-27T01:22:25.106Z,4.80
2023-10-27T01:23:27.025Z,4.80
2023-10-27T01:24:28.845Z,5.13
2023-10-27T01:25:30.303Z,4.40
2023-10-27T01:26:31.805Z,4.80
2023-10-27T01:27:33.963Z,5.10
2023-10-27T01:28:35.382Z,4.70
2023-10-27T01:29:36.793Z,4.60
2023-10-27T01:30:38.200Z,4.40
2023-10-27T01:31:39.633Z,4.33
2023-10-27T01:32:41.768Z,4.27
2023-10-27T01:33:43.472Z,4.57
2023-10-27T01:34:45.050Z,3.63
2023-10-27T01:35:46.923Z,3.83
2023-10-27T01:36:48.435Z,4.00
2023-10-27T01:37:49.988Z,4.20
2023-10-27T01:38:51.548Z,3.77
2023-10-27T01:39:53.137Z,4.23
2023-10-27T01:40:54.570Z,3.80
2023-10-27T01:41:56.584Z,3.77
2023-10-27T01:42:58.094Z,3.80
2023-10-27T01:43:59.659Z,3.90
2023-10-27T01:45:03.659Z,3.77
2023-10-27T01:46:05.073Z,3.83
2023-10-27T01:47:06.532Z,3.87
2023-10-27T01:48:08.033Z,3.60
2023-10-27T01:49:09.668Z,3.73
2023-10-27T01:50:11.266Z,4.03
2023-10-27T01:51:12.771Z,3.13
2023-10-27T01:52:14.301Z,3.73
2023-10-27T01:53:16.309Z,3.53
2023-10-27T01:54:17.737Z,3.77
2023-10-27T01:55:19.392Z,3.20
2023-10-27T01:56:22.242Z,4.03
2023-10-27T01:57:24.385Z,3.30
2023-10-27T01:58:28.710Z,3.40
2023-10-27T01:59:30.351Z,3.00
2023-10-27T02:00:32.170Z,3.13
2023-10-27T02:01:33.681Z,3.07
2023-10-27T02:02:35.880Z,2.97
2023-10-27T02:03:37.359Z,2.87
2023-10-27T02:04:39.006Z,3.30
2023-10-27T02:05:44.724Z,3.23
2023-10-27T02:06:46.105Z,3.10
2023-10-27T02:07:48.205Z,2.73
2023-10-27T02:08:49.909Z,3.20
2023-10-27T02:09:52.082Z,2.80
2023-10-27T02:10:53.613Z,3.10
2023-10-27T02:11:55.178Z,2.73
2023-10-27T02:12:56.776Z,2.60
2023-10-27T02:13:58.208Z,2.77
2023-10-27T02:14:59.642Z,2.73
2023-10-27T02:16:01.032Z,2.63
2023-10-27T02:17:02.529Z,2.93
2023-10-27T02:18:03.997Z,2.70
2023-10-27T02:19:05.486Z,2.43
2023-10-27T02:20:07.474Z,2.23
2023-10-27T02:21:09.028Z,2.23
2023-10-27T02:22:10.770Z,2.17
2023-10-27T02:23:12.498Z,2.23
2023-10-27T02:24:13.930Z,2.40
2023-10-27T02:25:15.440Z,2.47
2023-10-27T02:26:17.960Z,2.00
2023-10-27T02:27:20.440Z,2.93
2023-10-27T02:28:22.129Z,2.40
2023-10-27T02:29:23.655Z,2.17
2023-10-27T02:30:25.100Z,2.07
2023-10-27T02:31:26.784Z,2.40
2023-10-27T02:32:28.304Z,2.53
2023-10-27T02:33:29.803Z,2.20
2023-10-27T02:34:31.308Z,2.17
2023-10-27T02:35:32.916Z,2.50
2023-10-27T02:36:34.358Z,2.50
2023-10-27T02:37:36.046Z,2.67
2023-10-27T02:38:37.460Z,2.20
2023-10-27T02:39:38.890Z,2.00
2023-10-27T02:40:41.673Z,2.07
2023-10-27T02:41:43.568Z,1.90
2023-10-27T02:42:45.080Z,2.33
2023-10-27T02:43:48.973Z,2.17
2023-10-27T02:44:50.507Z,2.30
2023-10-27T02:46:02.413Z,2.20
2023-10-27T02:47:04.648Z,2.83
2023-10-27T02:48:07.071Z,2.50
2023-10-27T02:49:08.764Z,2.20
2023-10-27T02:50:10.493Z,2.27
2023-10-27T02:51:12.938Z,2.20
2023-10-27T02:52:16.321Z,2.47
2023-10-27T02:53:18.088Z,2.40
2023-10-27T02:54:19.645Z,2.23
2023-10-27T02:55:21.045Z,2.20
2023-10-27T02:56:23.160Z,2.90
2023-10-27T02:57:25.085Z,2.40
2023-10-27T02:58:26.553Z,2.50
2023-10-27T02:59:28.051Z,2.93
2023-10-27T03:00:29.467Z,3.00
2023-10-27T03:01:31.768Z,2.27
2023-10-27T03:02:33.574Z,2.63
2023-10-27T03:03:35.079Z,2.77
2023-10-27T03:04:36.573Z,2.63
2023-10-27T03:05:38.156Z,2.40
2023-10-27T03:06:39.884Z,2.80
2023-10-27T03:07:41.470Z,2.97
2023-10-27T03:08:43.190Z,2.70
2023-10-27T03:09:44.860Z,3.03
2023-10-27T03:10:46.414Z,2.93
2023-10-27T03:11:48.516Z,2.77
2023-10-27T03:12:50.194Z,2.50
2023-10-27T03:13:51.634Z,2.60
2023-10-27T03:14:53.115Z,2.90
2023-10-27T03:15:54.715Z,2.80
2023-10-27T03:16:56.128Z,2.83
2023-10-27T03:17:57.522Z,2.37
2023-10-27T03:18:59.086Z,2.90
2023-10-27T03:20:01.397Z,2.80
2023-10-27T03:21:05.062Z,2.60
2023-10-27T03:22:06.812Z,2.53
2023-10-27T03:23:08.160Z,2.37
2023-10-27T03:24:09.642Z,2.50
2023-10-27T03:25:11.160Z,2.90
2023-10-27T03:26:12.712Z,2.70
2023-10-27T03:27:14.137Z,2.90
2023-10-27T03:28:15.593Z,2.47
2023-10-27T03:29:17.000Z,2.50
2023-10-27T03:30:18.409Z,2.40
2023-10-27T03:31:20.144Z,2.83
2023-10-27T03:32:23.217Z,2.93
2023-10-27T03:33:24.900Z,3.30
2023-10-27T03:34:26.471Z,2.93
2023-10-27T03:35:27.971Z,2.90
2023-10-27T03:36:31.749Z,3.20
2023-10-27T03:37:33.317Z,3.03
2023-10-27T03:38:34.989Z,2.97
2023-10-27T03:39:36.618Z,3.27
2023-10-27T03:40:41.602Z,2.60
2023-10-27T03:41:44.551Z,2.87
2023-10-27T03:42:46.102Z,2.83
2023-10-27T03:43:47.888Z,2.63
2023-10-27T03:44:49.303Z,2.97
2023-10-27T03:45:50.807Z,2.93
2023-10-27T03:46:52.317Z,2.70
2023-10-27T03:47:53.741Z,2.90
2023-10-27T03:48:55.332Z,2.40
2023-10-27T03:49:56.920Z,2.70
2023-10-27T03:50:59.071Z,2.70
2023-10-27T03:52:00.759Z,2.53
2023-10-27T03:53:02.360Z,3.00
2023-10-27T03:54:04.002Z,2.80
2023-10-27T03:55:05.814Z,2.50
2023-10-27T03:56:07.371Z,3.10
2023-10-27T03:57:08.929Z,2.80
2023-10-27T03:58:17.729Z,2.73
2023-10-27T03:59:20.726Z,2.70
2023-10-27T04:00:22.298Z,2.53
2023-10-27T04:01:23.767Z,2.90
2023-10-27T04:02:25.211Z,2.60
2023-10-27T04:03:26.869Z,2.70
2023-10-27T04:04:28.413Z,2.60
2023-10-27T04:05:30.077Z,2.43
2023-10-27T04:06:31.638Z,3.00
2023-10-27T04:07:33.058Z,2.50
2023-10-27T04:08:34.506Z,2.60
2023-10-27T04:09:35.936Z,2.53
2023-10-27T04:10:37.508Z,2.40
2023-10-27T04:11:39.007Z,2.73
2023-10-27T04:12:40.600Z,2.60
2023-10-27T04:13:42.441Z,2.90
2023-10-27T04:14:43.894Z,2.80
2023-10-27T04:15:45.983Z,2.57
2023-10-27T04:16:47.991Z,2.50
2023-10-27T04:17:49.523Z,3.33
2023-10-27T04:18:51.102Z,2.80
2023-10-27T04:19:52.591Z,2.80
2023-10-27T04:20:53.959Z,3.50
2023-10-27T04:21:55.497Z,3.70
2023-10-27T04:22:56.966Z,3.40
2023-10-27T04:24:00.003Z,3.47
2023-10-27T04:25:01.472Z,3.17
2023-10-27T04:26:02.963Z,3.20
2023-10-27T04:27:04.996Z,3.00
2023-10-27T04:28:07.418Z,2.60
2023-10-27T04:29:08.866Z,3.00
2023-10-27T04:30:12.639Z,3.27
2023-10-27T04:31:14.204Z,2.90
2023-10-27T04:32:17.063Z,2.93
2023-10-27T04:33:18.652Z,3.10
2023-10-27T04:34:21.237Z,2.50
2023-10-27T04:35:22.816Z,3.00
2023-10-27T04:36:24.360Z,2.73
2023-10-27T04:37:25.972Z,2.63
2023-10-27T04:38:27.453Z,2.47
2023-10-27T04:39:28.806Z,2.90
2023-10-27T04:40:31.785Z,3.30
2023-10-27T04:41:33.902Z,2.83
2023-10-27T04:42:35.427Z,2.83
2023-10-27T04:43:37.030Z,2.50
2023-10-27T04:44:38.684Z,2.60
2023-10-27T04:45:40.084Z,2.73
2023-10-27T04:46:41.593Z,3.00
2023-10-27T04:47:43.010Z,3.10
2023-10-27T04:48:44.666Z,3.03
2023-10-27T04:49:46.803Z,2.60
2023-10-27T04:50:57.477Z,2.93
2023-10-27T04:51:58.961Z,2.70
2023-10-27T04:53:01.027Z,3.03
2023-10-27T04:54:02.399Z,3.23
2023-10-27T04:55:04.125Z,3.00
2023-10-27T04:56:06.006Z,3.23
2023-10-27T04:57:07.580Z,3.63
2023-10-27T04:58:09.042Z,3.57
2023-10-27T04:59:10.695Z,2.83
2023-10-27T05:00:15.179Z,3.13
2023-10-27T05:01:17.873Z,3.13
2023-10-27T05:02:19.548Z,2.80
2023-10-27T05:03:21.009Z,3.23
2023-10-27T05:04:22.602Z,2.63
2023-10-27T05:05:24.002Z,3.57
2023-10-27T05:06:25.777Z,3.37
2023-10-27T05:07:27.240Z,3.37
2023-10-27T05:08:28.747Z,3.30
2023-10-27T05:09:30.967Z,3.37
2023-10-27T05:10:32.419Z,4.10
2023-10-27T05:11:33.986Z,3.90
2023-10-27T05:12:37.468Z,3.33
2023-10-27T05:13:38.962Z,3.40
2023-10-27T05:14:41.038Z,3.73
2023-10-27T05:15:52.695Z,3.50
2023-10-27T05:16:54.141Z,3.13
2023-10-27T05:17:55.739Z,3.30
2023-10-27T05:18:57.487Z,3.33
2023-10-27T05:19:58.950Z,3.60
2023-10-27T05:21:00.381Z,3.30
2023-10-27T05:22:06.713Z,3.23
2023-10-27T05:23:08.234Z,3.00
2023-10-27T05:24:10.756Z,2.50
2023-10-27T05:25:12.261Z,3.10
2023-10-27T05:26:13.975Z,2.73
2023-10-27T05:27:16.155Z,3.03
2023-10-27T05:28:23.983Z,3.20
2023-10-27T05:29:26.840Z,2.73
2023-10-27T05:30:28.346Z,2.97
2023-10-27T05:31:29.885Z,3.30
2023-10-27T05:32:31.380Z,3.47
2023-10-27T05:33:32.896Z,3.10
2023-10-27T05:34:34.568Z,3.03
2023-10-27T05:35:36.101Z,3.00
2023-10-27T05:36:37.555Z,2.97
2023-10-27T05:37:39.073Z,2.73
2023-10-27T05:38:40.691Z,3.40
2023-10-27T05:39:42.189Z,3.00
2023-10-27T05:40:43.651Z,3.43
2023-10-27T05:41:46.346Z,3.13
2023-10-27T05:42:47.758Z,3.10
2023-10-27T05:43:51.660Z,3.37
2023-10-27T05:44:53.384Z,3.03
2023-10-27T05:45:54.825Z,3.10
2023-10-27T05:46:56.367Z,3.50
2023-10-27T05:47:57.893Z,4.00
2023-10-27T05:49:01.348Z,3.30
2023-10-27T05:50:02.909Z,3.00
2023-10-27T05:51:04.498Z,2.67
2023-10-27T05:52:06.236Z,2.97
2023-10-27T05:53:07.765Z,2.47
2023-10-27T05:54:09.213Z,3.07
2023-10-27T05:55:10.919Z,2.97
2023-10-27T05:56:12.465Z,2.60
2023-10-27T05:57:13.892Z,2.40
2023-10-27T05:58:15.330Z,2.40
2023-10-27T05:59:16.776Z,2.93
2023-10-27T06:00:18.499Z,3.07
2023-10-27T06:01:20.769Z,3.00
2023-10-27T06:02:22.381Z,3.23
2023-10-27T06:03:23.902Z,3.10
2023-10-27T06:04:26.245Z,3.07
2023-10-27T06:05:27.757Z,3.13
2023-10-27T06:06:29.339Z,3.03
2023-10-27T06:07:31.101Z,3.00
2023-10-27T06:08:33.184Z,2.60
2023-10-27T06:09:35.924Z,2.37
2023-10-27T06:10:39.032Z,2.37
2023-10-27T06:11:40.638Z,2.17
2023-10-27T06:12:42.118Z,1.93
2023-10-27T06:13:43.704Z,2.10
2023-10-27T06:14:45.625Z,2.27
2023-10-27T06:15:47.360Z,2.50
2023-10-27T06:16:48.751Z,2.10
2023-10-27T06:17:50.566Z,2.67
2023-10-27T06:18:55.500Z,2.30
2023-10-27T06:20:05.606Z,2.37
2023-10-27T06:21:17.964Z,2.07
2023-10-27T06:22:19.838Z,2.00
2023-10-27T06:23:21.318Z,2.03
2023-10-27T06:24:22.838Z,2.13
2023-10-27T06:25:27.071Z,1.90
2023-10-27T06:26:28.703Z,1.80
2023-10-27T06:27:30.352Z,1.70
2023-10-27T06:28:32.484Z,2.30
2023-10-27T06:29:35.177Z,2.67
2023-10-27T06:30:36.700Z,1.90
2023-10-27T06:31:39.285Z,1.73
2023-10-27T06:32:41.077Z,3.93
2023-10-27T06:33:42.822Z,2.07
2023-10-27T06:34:45.122Z,2.13
2023-10-27T06:35:47.062Z,2.03
2023-10-27T06:36:49.054Z,1.80
2023-10-27T06:37:50.628Z,1.70
2023-10-27T06:38:52.177Z,1.80
2023-10-27T06:40:00.687Z,1.60
2023-10-27T06:41:05.837Z,1.30
2023-10-27T06:42:07.683Z,1.30
2023-10-27T06:43:09.102Z,1.20
2023-10-27T06:44:10.597Z,1.50
2023-10-27T06:45:12.105Z,1.30
2023-10-27T06:46:13.599Z,1.50
2023-10-27T06:47:23.879Z,1.00
2023-10-27T06:48:28.847Z,1.00
2023-10-27T06:49:30.350Z,1.00
2023-10-27T06:50:31.940Z,1.00
2023-10-27T06:51:33.510Z,1.17
2023-10-27T06:52:35.361Z,0.93
2023-10-27T06:53:37.563Z,1.13
2023-10-27T06:54:39.348Z,0.93
2023-10-27T06:55:41.466Z,0.87
2023-10-27T06:56:44.024Z,1.00
2023-10-27T06:57:45.488Z,1.20
2023-10-27T06:58:47.162Z,1.10
2023-10-27T06:59:48.505Z,1.20
2023-10-27T07:00:49.957Z,1.27
2023-10-27T07:01:53.323Z,1.10
2023-10-27T07:02:57.127Z,1.00
2023-10-27T07:03:59.353Z,1.37
2023-10-27T07:05:00.987Z,0.90
2023-10-27T07:06:04.501Z,1.07
2023-10-27T07:07:11.730Z,1.43
2023-10-27T07:08:23.116Z,1.10
2023-10-27T07:09:24.881Z,1.10
2023-10-27T07:10:26.952Z,1.20
2023-10-27T07:11:28.500Z,1.20
2023-10-27T07:12:29.989Z,1.40
2023-10-27T07:13:31.765Z,1.20
2023-10-27T07:14:33.115Z,1.23
2023-10-27T07:15:34.635Z,1.40
2023-10-27T07:16:36.082Z,1.30
2023-10-27T07:17:38.425Z,1.10
2023-10-27T07:18:40.690Z,1.13
2023-10-27T07:19:42.913Z,1.50
2023-10-27T07:20:44.537Z,1.33
2023-10-27T07:21:46.073Z,1.30
2023-10-27T07:22:47.731Z,1.03
2023-10-27T07:23:49.328Z,1.20
2023-10-27T07:24:50.999Z,1.30
2023-10-27T07:25:52.472Z,1.40
2023-10-27T07:26:53.947Z,1.20
2023-10-27T07:27:56.936Z,1.33
2023-10-27T07:28:58.463Z,1.20
2023-10-27T07:29:59.844Z,1.27
2023-10-27T07:31:01.385Z,1.17
2023-10-27T07:32:03.380Z,1.30
2023-10-27T07:33:05.298Z,1.23
2023-10-27T07:34:07.018Z,1.80
2023-10-27T07:35:09.560Z,1.30
2023-10-27T07:36:11.572Z,1.00
2023-10-27T07:37:13.119Z,1.20
2023-10-27T07:38:14.724Z,0.97
2023-10-27T07:39:16.157Z,1.00
2023-10-27T07:40:17.579Z,1.03
2023-10-27T07:41:19.027Z,0.93
2023-10-27T07:42:20.487Z,1.07
2023-10-27T07:43:21.975Z,1.10
2023-10-27T07:44:23.438Z,1.03
2023-10-27T07:45:26.428Z,1.10
2023-10-27T07:46:28.057Z,0.80
2023-10-27T07:47:29.639Z,1.00
2023-10-27T07:48:31.190Z,1.00
2023-10-27T07:49:32.742Z,0.90
2023-10-27T07:50:35.853Z,0.93
2023-10-27T07:51:37.489Z,1.40
2023-10-27T07:52:39.015Z,1.07
2023-10-27T07:53:43.870Z,1.07
2023-10-27T07:54:46.123Z,0.90
2023-10-27T07:55:47.726Z,1.13
2023-10-27T07:56:49.576Z,1.20
2023-10-27T07:57:50.997Z,1.00
2023-10-27T07:58:52.710Z,1.10
2023-10-27T07:59:54.426Z,1.03
2023-10-27T08:00:56.016Z,1.10
2023-10-27T08:02:01.768Z,1.13
2023-10-27T08:03:03.923Z,1.13
2023-10-27T08:04:07.187Z,1.70
2023-10-27T08:05:08.778Z,1.40
2023-10-27T08:06:10.239Z,0.70
2023-10-27T08:07:12.603Z,1.70
2023-10-27T08:08:14.118Z,1.10
2023-10-27T08:09:23.077Z,1.00
2023-10-27T08:10:25.977Z,1.00
2023-10-27T08:11:27.576Z,0.90
2023-10-27T08:12:29.077Z,0.90
2023-10-27T08:13:30.518Z,0.80
2023-10-27T08:14:33.778Z,0.90
2023-10-27T08:15:35.456Z,1.10
2023-10-27T08:16:37.087Z,1.50
2023-10-27T08:17:38.685Z,1.03
2023-10-27T08:18:40.161Z,0.80
2023-10-27T08:19:42.256Z,1.03
2023-10-27T08:20:43.979Z,0.80
2023-10-27T08:21:47.766Z,0.90
2023-10-27T08:22:49.260Z,0.77
2023-10-27T08:23:50.817Z,0.90
2023-10-27T08:24:52.345Z,1.10
2023-10-27T08:25:53.877Z,1.30
2023-10-27T08:26:55.380Z,1.00
2023-10-27T08:27:56.921Z,2.00
2023-10-27T08:28:58.353Z,1.20
2023-10-27T08:29:59.813Z,1.27
2023-10-27T08:31:01.743Z,1.47
2023-10-27T08:32:03.397Z,0.90
2023-10-27T08:33:04.975Z,0.80
2023-10-27T08:34:08.148Z,0.80
2023-10-27T08:35:09.609Z,1.00
2023-10-27T08:36:12.554Z,0.80
2023-10-27T08:37:14.271Z,1.00
2023-10-27T08:38:15.832Z,0.90
2023-10-27T08:39:17.316Z,0.80
2023-10-27T08:40:18.912Z,0.70
2023-10-27T08:41:20.454Z,0.80
2023-10-27T08:42:22.013Z,0.70
2023-10-27T08:43:23.954Z,0.80
2023-10-27T08:44:26.380Z,0.60
2023-10-27T08:45:29.084Z,0.83
2023-10-27T08:46:30.698Z,0.50
2023-10-27T08:47:34.368Z,0.57
2023-10-27T08:48:36.160Z,0.60
2023-10-27T08:49:37.765Z,0.50
2023-10-27T08:50:39.833Z,0.70
2023-10-27T08:51:41.376Z,0.70
2023-10-27T08:52:43.003Z,0.70
2023-10-27T08:53:44.890Z,0.50
2023-10-27T08:54:46.789Z,0.53
2023-10-27T08:55:49.912Z,0.60
2023-10-27T08:56:51.406Z,0.50
2023-10-27T08:57:54.935Z,0.57
2023-10-27T08:58:56.436Z,0.47
2023-10-27T08:59:57.874Z,0.50
2023-10-27T09:00:59.315Z,0.50
2023-10-27T09:02:02.486Z,0.50
2023-10-27T09:03:19.616Z,0.60
2023-10-27T09:04:25.042Z,0.40
2023-10-27T09:05:27.547Z,0.60
2023-10-27T09:06:29.124Z,0.77
2023-10-27T09:07:31.971Z,0.50
2023-10-27T09:08:33.681Z,0.50
2023-10-27T09:09:35.293Z,0.70
2023-10-27T09:10:37.712Z,0.60
2023-10-27T09:11:41.233Z,0.50
2023-10-27T09:12:42.942Z,0.50
2023-10-27T09:13:44.464Z,0.50
2023-10-27T09:14:58.219Z,0.70
2023-10-27T09:15:59.673Z,0.67
2023-10-27T09:17:08.414Z,0.40
2023-10-27T09:18:10.266Z,0.60
2023-10-27T09:19:18.606Z,0.50
2023-10-27T09:20:24.686Z,0.60
2023-10-27T09:21:33.756Z,0.60
2023-10-27T09:22:45.396Z,0.50
2023-10-27T09:23:49.251Z,0.60
2023-10-27T09:24:50.879Z,0.60
2023-10-27T09:25:57.422Z,0.70
2023-10-27T09:27:00.835Z,0.60
2023-10-27T09:28:03.414Z,0.80
2023-10-27T09:29:04.894Z,0.60
2023-10-27T09:30:07.602Z,0.70
2023-10-27T09:31:09.095Z,0.60
2023-10-27T09:32:26.780Z,0.50
2023-10-27T09:33:28.870Z,0.67
2023-10-27T09:34:32.827Z,1.00
2023-10-27T09:35:34.401Z,0.70
2023-10-27T09:36:35.916Z,0.90
2023-10-27T09:37:42.605Z,1.60
2023-10-27T09:38:44.123Z,3.70
2023-10-27T09:39:46.961Z,2.17
2023-10-27T09:40:48.495Z,2.03
2023-10-27T09:42:09.051Z,1.10
2023-10-27T09:43:17.004Z,1.07
2023-10-27T09:44:21.149Z,1.20
2023-10-27T09:45:23.556Z,0.90
2023-10-27T09:46:25.155Z,0.93
2023-10-27T09:47:34.487Z,0.77
2023-10-27T09:48:36.472Z,0.80
2023-10-27T09:49:39.737Z,0.90
2023-10-27T09:50:46.234Z,1.00
2023-10-27T09:51:47.968Z,0.97
2023-10-27T09:52:50.205Z,0.90
2023-10-27T09:53:53.113Z,0.90
2023-10-27T09:55:09.309Z,1.40
2023-10-27T09:56:14.727Z,1.30
2023-10-27T09:57:16.470Z,1.20
2023-10-27T09:58:18.085Z,1.63
2023-10-27T09:59:19.759Z,1.20
2023-10-27T10:00:22.708Z,0.77
2023-10-27T10:01:24.271Z,0.80
2023-10-27T10:02:25.786Z,0.80
2023-10-27T10:03:30.474Z,0.80
2023-10-27T10:04:51.024Z,0.80
2023-10-27T10:06:12.069Z,0.80
2023-10-27T10:07:13.801Z,0.80
2023-10-27T10:08:19.730Z,0.80
2023-10-27T10:09:21.284Z,1.00
2023-10-27T10:10:22.774Z,0.70
2023-10-27T10:11:24.334Z,0.90
2023-10-27T10:12:25.910Z,0.83
2023-10-27T10:13:35.446Z,0.80
2023-10-27T10:14:36.829Z,0.60
2023-10-27T10:15:39.185Z,0.77
2023-10-27T10:16:45.492Z,0.70
2023-10-27T10:17:48.352Z,0.73
2023-10-27T10:18:50.216Z,0.80
2023-10-27T10:19:52.655Z,0.70
2023-10-27T10:20:57.930Z,0.83
2023-10-27T10:22:01.323Z,0.53
2023-10-27T10:23:02.740Z,0.60
2023-10-27T10:24:04.990Z,0.60
2023-10-27T10:25:15.733Z,0.63
2023-10-27T10:26:17.277Z,0.90
2023-10-27T10:27:19.434Z,0.63
2023-10-27T10:28:20.950Z,0.70
2023-10-27T10:29:28.866Z,0.80
2023-10-27T10:30:30.341Z,0.60
2023-10-27T10:31:32.384Z,0.80
2023-10-27T10:32:34.348Z,0.70
2023-10-27T10:33:36.473Z,0.70
2023-10-27T10:34:38.019Z,0.73
2023-10-27T10:35:39.518Z,0.80
2023-10-27T10:36:41.801Z,0.80
2023-10-27T10:37:43.321Z,1.00
2023-10-27T10:38:56.919Z,0.80
2023-10-27T10:40:17.058Z,0.83
2023-10-27T10:41:19.876Z,1.33
2023-10-27T10:42:21.498Z,1.20
2023-10-27T10:43:28.211Z,0.87
2023-10-27T10:44:30.103Z,1.00
2023-10-27T10:45:32.566Z,0.90
2023-10-27T10:46:34.111Z,0.90
2023-10-27T10:47:35.605Z,1.27
2023-10-27T10:48:41.632Z,1.07
2023-10-27T10:49:43.126Z,1.17
2023-10-27T10:50:45.281Z,1.07
2023-10-27T10:51:51.155Z,1.00
2023-10-27T10:53:09.933Z,3.57
2023-10-27T10:54:14.362Z,2.00
2023-10-27T10:55:20.319Z,1.90
2023-10-27T10:56:21.942Z,1.40
2023-10-27T10:57:23.975Z,1.10
2023-10-27T10:58:26.234Z,1.13
2023-10-27T10:59:27.707Z,1.17
2023-10-27T11:00:36.410Z,1.10
2023-10-27T11:01:38.124Z,1.30
2023-10-27T11:02:40.063Z,1.13
2023-10-27T11:03:46.407Z,0.97
2023-10-27T11:04:49.121Z,1.37
2023-10-27T11:05:55.967Z,1.27
2023-10-27T11:07:01.939Z,1.33
2023-10-27T11:08:04.128Z,1.00
2023-10-27T11:09:05.660Z,1.13
2023-10-27T11:10:22.274Z,1.30
2023-10-27T11:11:34.842Z,1.30
2023-10-27T11:12:43.595Z,1.00
2023-10-27T11:13:49.078Z,1.10
2023-10-27T11:14:50.709Z,0.97
2023-10-27T11:15:52.480Z,1.30
2023-10-27T11:16:57.719Z,1.30
2023-10-27T11:18:05.269Z,1.20
2023-10-27T11:19:15.632Z,1.47
2023-10-27T11:20:34.185Z,1.77
2023-10-27T11:21:35.706Z,1.23
2023-10-27T11:22:37.474Z,1.20
2023-10-27T11:23:39.129Z,1.40
2023-10-27T11:24:47.803Z,1.53
2023-10-27T11:25:49.686Z,1.10
2023-10-27T11:26:51.593Z,1.33
2023-10-27T11:27:53.726Z,1.23
2023-10-27T11:28:55.932Z,1.30
2023-10-27T11:29:58.627Z,1.33
2023-10-27T11:31:03.458Z,1.10
2023-10-27T11:32:17.524Z,1.00
2023-10-27T11:33:19.028Z,1.10
2023-10-27T11:34:21.819Z,1.00
2023-10-27T11:35:23.783Z,1.27
2023-10-27T11:36:28.157Z,1.03
2023-10-27T11:37:31.982Z,1.30
2023-10-27T11:38:35.112Z,1.10
2023-10-27T11:39:36.640Z,1.30
2023-10-27T11:40:38.216Z,1.20
2023-10-27T11:41:41.195Z,1.80
2023-10-27T11:42:42.686Z,1.70
2023-10-27T11:43:44.245Z,1.40
2023-10-27T11:44:46.493Z,1.00
2023-10-27T11:45:48.376Z,0.90
2023-10-27T11:46:51.544Z,1.47
2023-10-27T11:47:53.460Z,1.30
2023-10-27T11:48:55.636Z,1.10
2023-10-27T11:49:57.280Z,1.10
2023-10-27T11:50:58.899Z,1.47
2023-10-27T11:52:00.713Z,1.30
2023-10-27T11:53:02.280Z,1.00
2023-10-27T11:54:06.338Z,1.20
2023-10-27T11:55:09.235Z,1.13
2023-10-27T11:56:11.358Z,0.90
2023-10-27T11:57:14.226Z,1.30
2023-10-27T11:58:15.994Z,1.23
2023-10-27T11:59:18.642Z,1.00
2023-10-27T12:00:20.281Z,0.83
2023-10-27T12:01:21.896Z,1.07
2023-10-27T12:02:23.594Z,1.03
2023-10-27T12:03:26.029Z,0.90
2023-10-27T12:04:29.046Z,1.10
2023-10-27T12:05:32.401Z,1.30
2023-10-27T12:06:34.138Z,1.37
2023-10-27T12:07:35.906Z,1.30
2023-10-27T12:08:37.675Z,1.50
2023-10-27T12:09:39.229Z,1.33
2023-10-27T12:10:40.990Z,1.00
2023-10-27T12:11:42.754Z,1.10
2023-10-27T12:12:44.237Z,1.00
2023-10-27T12:13:45.977Z,1.23
2023-10-27T12:14:47.632Z,0.87
2023-10-27T12:15:49.640Z,1.10
2023-10-27T12:16:52.782Z,1.03
2023-10-27T12:17:54.505Z,1.20
2023-10-27T12:18:56.773Z,1.00
2023-10-27T12:19:59.342Z,1.10
2023-10-27T12:21:02.323Z,0.87
2023-10-27T12:22:05.405Z,0.90
2023-10-27T12:23:10.262Z,0.67
2023-10-27T12:24:12.318Z,0.90
2023-10-27T12:25:14.029Z,0.70
2023-10-27T12:26:15.618Z,0.60
2023-10-27T12:27:17.025Z,0.63
2023-10-27T12:28:19.223Z,0.70
2023-10-27T12:29:23.949Z,0.60
2023-10-27T12:30:25.362Z,0.50
2023-10-27T12:31:26.824Z,0.70
2023-10-27T12:32:33.957Z,0.50
2023-10-27T12:33:35.510Z,0.60
2023-10-27T12:34:37.079Z,0.53
2023-10-27T12:35:38.768Z,0.60
2023-10-27T12:36:40.294Z,0.83
2023-10-27T12:37:44.083Z,0.77
2023-10-27T12:38:45.562Z,0.70
2023-10-27T12:39:47.153Z,0.90
2023-10-27T12:40:48.896Z,1.00
2023-10-27T12:41:53.679Z,0.77
2023-10-27T12:42:55.110Z,1.00
2023-10-27T12:43:56.576Z,0.90
2023-10-27T12:44:58.376Z,0.70
2023-10-27T12:46:04.193Z,0.50
2023-10-27T12:47:05.743Z,0.67
2023-10-27T12:48:07.979Z,0.70
2023-10-27T12:49:10.095Z,0.87
2023-10-27T12:50:12.159Z,0.80
2023-10-27T12:51:13.956Z,1.00
2023-10-27T12:52:15.681Z,1.30
2023-10-27T12:53:17.989Z,0.80
2023-10-27T12:54:19.457Z,1.00
2023-10-27T12:55:21.008Z,0.90
2023-10-27T12:56:22.512Z,0.97
2023-10-27T12:57:23.967Z,0.87
2023-10-27T12:58:25.836Z,0.80
2023-10-27T12:59:27.355Z,0.73
2023-10-27T13:00:30.911Z,0.87
2023-10-27T13:01:33.811Z,0.80
2023-10-27T13:02:35.299Z,0.97
2023-10-27T13:03:37.111Z,1.03
2023-10-27T13:04:38.755Z,0.93
2023-10-27T13:05:40.509Z,0.80
2023-10-27T13:06:42.052Z,0.90
2023-10-27T13:07:44.237Z,0.80
2023-10-27T13:08:45.917Z,1.00
2023-10-27T13:09:47.431Z,0.90
2023-10-27T13:10:49.201Z,0.70
2023-10-27T13:11:50.728Z,0.60
2023-10-27T13:12:54.558Z,1.20
2023-10-27T13:13:55.991Z,0.60
2023-10-27T13:14:58.295Z,0.50
2023-10-27T13:15:59.795Z,0.60
2023-10-27T13:17:04.088Z,0.87
2023-10-27T13:18:06.492Z,0.80
2023-10-27T13:19:09.267Z,0.90
2023-10-27T13:20:13.352Z,1.10
2023-10-27T13:21:20.065Z,0.90
2023-10-27T13:22:26.989Z,0.80
2023-10-27T13:23:28.419Z,1.00
2023-10-27T13:24:29.937Z,0.90
2023-10-27T13:25:31.693Z,0.93
2023-10-27T13:26:33.492Z,1.13
2023-10-27T13:27:34.941Z,0.70
2023-10-27T13:28:36.449Z,0.70
2023-10-27T13:29:38.496Z,0.80
2023-10-27T13:30:40.073Z,0.60
2023-10-27T13:31:45.264Z,0.80
2023-10-27T13:32:47.221Z,1.00
2023-10-27T13:33:49.040Z,1.03
2023-10-27T13:34:50.672Z,1.17
2023-10-27T13:36:00.022Z,1.20
2023-10-27T13:37:03.249Z,1.03
2023-10-27T13:38:08.003Z,1.30
2023-10-27T13:39:09.806Z,1.00
2023-10-27T13:40:11.454Z,1.00
2023-10-27T13:41:16.579Z,1.10
2023-10-27T13:42:18.115Z,1.10
2023-10-27T13:43:22.153Z,1.20
2023-10-27T13:44:23.868Z,1.40
2023-10-27T13:45:25.384Z,1.43
2023-10-27T13:46:28.304Z,1.60
2023-10-27T13:47:29.915Z,1.50
2023-10-27T13:48:34.293Z,1.30
2023-10-27T13:49:36.404Z,1.40
2023-10-27T13:50:38.083Z,1.20
2023-10-27T13:51:39.934Z,1.10
2023-10-27T13:52:41.628Z,1.20
2023-10-27T13:53:43.432Z,1.00